Time;durP1;ratioP1;P1;durP2;ratioP2;P2;SDS_P1;SDS_P2;PMS_P1;PMS_P2;Temp;Humidity;BMP_temperature;BMP_pressure;BME280_temperature;BME280_humidity;BME280_pressure;Samples;Min_cycle;Max_cycle;Signal;HPM_P1;HPM_P2
2023/05/10 00:00:20;;;;;;;2.28;1.00;;;;;14.90;97932.00;;;;5055986;28;20490;-67
2023/05/10 00:02:47;;;;;;;1.75;1.17;;;;;14.90;97927.00;;;;5055227;28;20044;-66
2023/05/10 00:05:13;;;;;;;2.15;1.13;;;;;14.80;97931.00;;;;5055356;28;20103;-66
2023/05/10 00:07:40;;;;;;;2.85;1.10;;;;;14.80;97923.00;;;;5055072;28;20107;-66
2023/05/10 00:10:07;;;;;;;1.30;1.20;;;;;14.70;97916.00;;;;5038145;28;20045;-66
2023/05/10 00:12:33;;;;;;;3.72;1.30;;;;;14.80;97922.00;;;;5055045;28;20099;-66
2023/05/10 00:15:01;;;;;;;2.08;1.40;;;;;14.80;97932.00;;;;5055187;28;20048;-66
2023/05/10 00:17:28;;;;;;;1.13;1.02;;;;;14.80;97923.00;;;;5056365;28;20045;-66
2023/05/10 00:19:54;;;;;;;1.38;1.27;;;;;14.80;97925.00;;;;5055789;28;20055;-66
2023/05/10 00:22:21;;;;;;;1.38;1.27;;;;;14.70;97925.00;;;;5055803;28;20041;-66
2023/05/10 00:24:47;;;;;;;1.85;1.30;;;;;14.70;97919.00;;;;5054842;28;20131;-66
2023/05/10 00:27:14;;;;;;;1.98;1.40;;;;;14.70;97919.00;;;;5055192;28;20041;-66
2023/05/10 00:29:41;;;;;;;1.42;1.33;;;;;14.70;97921.00;;;;5053953;28;20059;-64
2023/05/10 00:32:07;;;;;;;1.45;1.30;;;;;14.70;97923.00;;;;5053555;28;20390;-64
2023/05/10 00:34:34;;;;;;;1.50;1.40;;;;;14.70;97920.00;;;;5054782;28;20044;-64
2023/05/10 00:37:01;;;;;;;4.40;1.63;;;;;14.70;97915.00;;;;5054664;28;20053;-64
2023/05/10 00:39:28;;;;;;;1.40;1.30;;;;;14.80;97915.00;;;;5053186;28;20048;-64
2023/05/10 00:41:54;;;;;;;3.45;1.58;;;;;14.70;97919.00;;;;5053365;28;20053;-64
2023/05/10 00:44:21;;;;;;;2.15;1.38;;;;;14.80;97914.00;;;;5053301;28;20409;-64
2023/05/10 00:46:49;;;;;;;1.58;1.40;;;;;14.80;97915.00;;;;5054739;28;20048;-65
2023/05/10 00:49:16;;;;;;;2.63;1.42;;;;;14.90;97919.00;;;;5053036;28;20045;-65
2023/05/10 00:51:44;;;;;;;2.45;1.80;;;;;14.80;97915.00;;;;5054644;28;20570;-64
2023/05/10 00:54:12;;;;;;;1.60;1.50;;;;;14.80;97914.00;;;;5054404;28;20041;-64
2023/05/10 00:56:39;;;;;;;2.63;1.63;;;;;14.80;97908.00;;;;5052871;28;20049;-64
2023/05/10 00:59:07;;;;;;;2.65;2.10;;;;;14.80;97913.00;;;;5053056;28;20045;-64
2023/05/10 01:01:35;;;;;;;1.50;1.40;;;;;14.90;97916.00;;;;5054808;28;20494;-65
2023/05/10 01:04:02;;;;;;;2.97;1.40;;;;;14.90;97927.00;;;;5055340;28;20041;-65
2023/05/10 01:06:29;;;;;;;3.72;1.50;;;;;14.90;97927.00;;;;5037334;28;20135;-66
2023/05/10 01:08:56;;;;;;;2.05;1.42;;;;;14.90;97927.00;;;;5055056;28;20045;-66
2023/05/10 01:11:22;;;;;;;3.70;1.60;;;;;14.90;97921.00;;;;5053381;28;20045;-64
2023/05/10 01:13:54;;;;;;;1.58;1.42;;;;;15.00;97923.00;;;;5054015;28;20029;-64
2023/05/10 01:16:21;;;;;;;2.45;2.00;;;;;15.00;97926.00;;;;5052782;28;20045;-65
2023/05/10 01:18:48;;;;;;;1.90;1.67;;;;;14.90;97924.00;;;;5052710;28;20045;-65
2023/05/10 01:21:31;;;;;;;4.00;1.73;;;;;14.90;97920.00;;;;5052727;28;20429;-64
2023/05/10 01:24:07;;;;;;;2.30;1.80;;;;;14.80;97910.00;;;;5052541;28;20494;-64
2023/05/10 01:27:01;;;;;;;1.70;1.50;;;;;14.80;97916.00;;;;5052761;28;20068;-64
2023/05/10 01:30:06;;;;;;;2.83;2.58;;;;;14.80;97914.00;;;;5052165;28;20060;-64
2023/05/10 01:32:46;;;;;;;2.10;1.90;;;;;14.80;97917.00;;;;5052057;28;20048;-64
2023/05/10 01:35:26;;;;;;;2.70;1.77;;;;;14.70;97924.00;;;;5053664;28;20151;-64
2023/05/10 01:38:17;;;;;;;3.25;2.00;;;;;14.70;97929.00;;;;5035967;28;20051;-65
2023/05/10 01:41:05;;;;;;;4.90;1.83;;;;;14.70;97930.00;;;;5053568;28;20037;-64
2023/05/10 01:43:42;;;;;;;2.33;2.10;;;;;14.70;97934.00;;;;5052190;28;20102;-64
2023/05/10 01:46:20;;;;;;;1.90;1.80;;;;;14.70;97932.00;;;;5052904;28;20044;-65
2023/05/10 01:48:57;;;;;;;2.50;2.30;;;;;14.70;97925.00;;;;5052948;28;20575;-66
2023/05/10 01:51:25;;;;;;;2.88;2.67;;;;;14.60;97928.00;;;;5052868;28;20048;-66
2023/05/10 01:54:01;;;;;;;2.72;2.17;;;;;14.50;97933.00;;;;5052874;28;20045;-66
2023/05/10 01:56:30;;;;;;;6.43;2.60;;;;;14.50;97926.00;;;;5053034;28;20048;-66
2023/05/10 01:58:58;;;;;;;2.60;2.40;;;;;14.50;97933.00;;;;5052837;28;20522;-66
2023/05/10 02:01:26;;;;;;;3.17;2.50;;;;;14.50;97929.00;;;;5052624;28;20048;-66
2023/05/10 02:03:54;;;;;;;3.97;2.55;;;;;14.50;97929.00;;;;5035190;28;20037;-65
2023/05/10 02:06:24;;;;;;;4.05;2.50;;;;;14.50;97937.00;;;;5035584;28;20045;-64
2023/05/10 02:08:52;;;;;;;2.38;2.17;;;;;14.50;97945.00;;;;5050967;28;20049;-65
2023/05/10 02:11:21;;;;;;;2.50;2.30;;;;;14.40;97947.00;;;;5051748;28;20049;-64
2023/05/10 02:13:50;;;;;;;3.92;2.42;;;;;14.40;97945.00;;;;5051668;28;20063;-65
2023/05/10 02:16:18;;;;;;;2.35;2.17;;;;;14.50;97950.00;;;;5053016;28;20068;-64
2023/05/10 02:18:46;;;;;;;4.25;2.30;;;;;14.40;97951.00;;;;5051435;28;20110;-65
2023/05/10 02:21:14;;;;;;;17.83;4.10;;;;;14.40;97963.00;;;;5052553;28;20413;-64
2023/05/10 02:23:42;;;;;;;3.92;2.30;;;;;14.50;97962.00;;;;5052609;28;20041;-64
2023/05/10 02:26:10;;;;;;;3.72;2.50;;;;;14.50;97964.00;;;;5035128;28;20060;-64
2023/05/10 02:28:38;;;;;;;3.17;2.58;;;;;14.50;97959.00;;;;5052726;28;20045;-64
2023/05/10 02:31:06;;;;;;;9.05;2.35;;;;;14.50;97960.00;;;;5050967;28;20144;-64
2023/05/10 02:33:34;;;;;;;2.80;2.50;;;;;14.50;97961.00;;;;5052591;28;20033;-64
2023/05/10 02:36:02;;;;;;;3.63;2.78;;;;;14.50;97973.00;;;;5052579;28;20045;-64
2023/05/10 02:38:30;;;;;;;4.50;2.70;;;;;14.50;97969.00;;;;5052456;28;20041;-64
2023/05/10 02:40:57;;;;;;;4.85;2.55;;;;;14.40;97960.00;;;;5051061;28;20059;-64
2023/05/10 02:43:24;;;;;;;5.18;2.38;;;;;14.40;97970.00;;;;5051250;28;20049;-64
2023/05/10 02:45:51;;;;;;;4.80;2.67;;;;;14.40;97969.00;;;;5051254;28;20045;-64
2023/05/10 02:48:17;;;;;;;3.70;3.00;;;;;14.40;97966.00;;;;5051333;28;20074;-64
2023/05/10 02:50:48;;;;;;;4.43;3.30;;;;;14.50;97971.00;;;;5050934;28;20049;-64
2023/05/10 02:53:19;;;;;;;2.80;2.60;;;;;14.50;97967.00;;;;5052538;28;20051;-64
2023/05/10 02:55:50;;;;;;;3.05;2.75;;;;;14.50;97975.00;;;;5051183;28;20075;-64
2023/05/10 02:58:19;;;;;;;3.42;3.13;;;;;14.50;97974.00;;;;5030799;28;20056;-64
2023/05/10 03:00:46;;;;;;;5.13;3.22;;;;;14.60;97969.00;;;;5044273;28;20054;-64
2023/05/10 03:03:12;;;;;;;6.03;3.30;;;;;14.60;97966.00;;;;5043680;28;20056;-64
2023/05/10 03:05:39;;;;;;;3.45;3.15;;;;;14.60;97969.00;;;;5034091;28;20045;-64
2023/05/10 03:08:06;;;;;;;3.47;2.92;;;;;14.60;97966.00;;;;5031396;28;20049;-65
2023/05/10 03:11:03;;;;;;;3.28;2.97;;;;;14.60;97967.00;;;;5050169;28;20532;-64
2023/05/10 03:13:43;;;;;;;4.30;3.05;;;;;14.60;97973.00;;;;5027440;28;20141;-64
2023/05/10 03:16:15;;;;;;;3.70;2.92;;;;;14.70;97981.00;;;;5017865;28;20054;-64
2023/05/10 03:18:50;;;;;;;5.18;3.55;;;;;14.70;97981.00;;;;5036756;28;20056;-64
2023/05/10 03:21:19;;;;;;;7.00;3.75;;;;;14.80;97980.00;;;;5032919;28;20664;-64
2023/05/10 03:23:58;;;;;;;4.10;3.30;;;;;14.80;97981.00;;;;5033980;28;20093;-64
2023/05/10 03:26:27;;;;;;;4.00;3.70;;;;;14.80;97979.00;;;;5042540;28;20050;-64
2023/05/10 03:29:02;;;;;;;7.50;4.15;;;;;14.70;97978.00;;;;5040648;28;20843;-65
2023/05/10 03:31:29;;;;;;;3.53;3.22;;;;;14.80;97976.00;;;;5037716;28;20059;-64
2023/05/10 03:33:55;;;;;;;4.55;3.80;;;;;14.80;97974.00;;;;5037620;28;20052;-64
2023/05/10 03:36:25;;;;;;;4.97;4.22;;;;;14.70;97979.00;;;;5038225;28;20045;-64
2023/05/10 03:38:53;;;;;;;4.38;3.97;;;;;14.70;97976.00;;;;5021746;28;20072;-65
2023/05/10 03:41:20;;;;;;;4.97;4.53;;;;;14.80;97980.00;;;;5020917;28;20686;-64
2023/05/10 03:43:47;;;;;;;4.60;4.20;;;;;14.70;97980.00;;;;5053740;28;20041;-64
2023/05/10 03:46:13;;;;;;;5.43;4.88;;;;;14.70;97969.00;;;;5038521;28;20056;-64
2023/05/10 03:48:40;;;;;;;5.57;5.07;;;;;14.60;97976.00;;;;5022805;28;20052;-64
2023/05/10 03:51:06;;;;;;;6.28;5.10;;;;;14.60;97974.00;;;;5039177;28;20050;-64
2023/05/10 03:53:33;;;;;;;5.68;5.13;;;;;14.60;97979.00;;;;5033650;28;20041;-64
2023/05/10 03:56:00;;;;;;;8.10;6.32;;;;;14.70;97975.00;;;;5016775;28;20049;-64
2023/05/10 03:58:27;;;;;;;7.63;5.55;;;;;14.70;97985.00;;;;5032242;28;20498;-64
2023/05/10 04:00:53;;;;;;;6.25;5.65;;;;;14.70;97979.00;;;;5032145;28;20084;-64
2023/05/10 04:03:20;;;;;;;7.78;5.65;;;;;14.80;97986.00;;;;5036502;28;20042;-64
2023/05/10 04:05:46;;;;;;;8.82;5.93;;;;;14.80;97980.00;;;;5019611;28;20053;-64
2023/05/10 04:08:16;;;;;;;6.57;5.68;;;;;14.80;97993.00;;;;5034207;28;20071;-64
2023/05/10 04:10:42;;;;;;;6.05;5.45;;;;;14.90;97978.00;;;;5033342;28;20085;-65
2023/05/10 04:13:09;;;;;;;5.82;5.22;;;;;14.90;97978.00;;;;5031885;28;20069;-65
2023/05/10 04:15:36;;;;;;;7.53;5.60;;;;;14.90;97981.00;;;;5032787;28;20041;-65
2023/05/10 04:18:03;;;;;;;7.72;5.88;;;;;14.90;97987.00;;;;5030638;28;20120;-65
2023/05/10 04:20:32;;;;;;;8.55;5.50;;;;;14.90;97984.00;;;;5030576;28;20399;-66
2023/05/10 04:22:58;;;;;;;5.00;4.50;;;;;15.00;97983.00;;;;5030659;28;20046;-66
2023/05/10 04:25:25;;;;;;;5.75;4.22;;;;;15.00;97984.00;;;;5033630;28;20042;-65
2023/05/10 04:27:52;;;;;;;4.68;4.28;;;;;15.00;97984.00;;;;5033669;28;20046;-65
2023/05/10 04:30:18;;;;;;;4.72;4.00;;;;;15.00;97986.00;;;;5033708;28;20053;-65
2023/05/10 04:32:45;;;;;;;3.72;3.40;;;;;14.90;97991.00;;;;5036319;28;20045;-65
2023/05/10 04:35:11;;;;;;;5.90;2.90;;;;;14.90;97991.00;;;;5036981;28;20073;-66
2023/05/10 04:37:38;;;;;;;4.72;2.83;;;;;15.00;97993.00;;;;5037398;28;20049;-65
2023/05/10 04:40:06;;;;;;;2.72;2.33;;;;;15.00;97993.00;;;;5037455;28;20495;-65
2023/05/10 04:42:32;;;;;;;2.85;1.98;;;;;15.10;97989.00;;;;5036527;28;20051;-64
2023/05/10 04:44:59;;;;;;;2.72;2.10;;;;;15.10;97998.00;;;;5036258;28;20116;-64
2023/05/10 04:47:25;;;;;;;2.95;1.95;;;;;15.10;97992.00;;;;5037428;28;20052;-64
2023/05/10 04:49:52;;;;;;;2.20;1.85;;;;;15.20;97995.00;;;;5035795;28;20045;-66
2023/05/10 04:52:18;;;;;;;4.93;2.50;;;;;15.20;97995.00;;;;5037629;28;20053;-64
2023/05/10 04:54:45;;;;;;;8.88;3.38;;;;;15.30;98007.00;;;;5055407;28;20104;-65
2023/05/10 04:57:11;;;;;;;4.65;2.40;;;;;15.30;98011.00;;;;5036291;28;20041;-64
2023/05/10 04:59:38;;;;;;;1.90;1.80;;;;;15.40;98003.00;;;;5037422;28;20055;-65
2023/05/10 05:02:05;;;;;;;2.90;1.90;;;;;15.40;98013.00;;;;5036635;28;20053;-64
2023/05/10 05:04:31;;;;;;;3.95;2.30;;;;;15.40;98018.00;;;;5038524;28;20116;-64
2023/05/10 05:06:58;;;;;;;3.17;2.20;;;;;15.30;98024.00;;;;5036751;28;20446;-64
2023/05/10 05:09:24;;;;;;;2.50;2.30;;;;;15.30;98030.00;;;;5036327;28;20050;-64
2023/05/10 05:11:51;;;;;;;3.72;2.00;;;;;15.20;98031.00;;;;5036578;28;20041;-64
2023/05/10 05:14:17;;;;;;;3.90;2.10;;;;;15.20;98037.00;;;;5039014;28;20041;-64
2023/05/10 05:16:44;;;;;;;3.17;2.10;;;;;15.10;98044.00;;;;5038082;28;20056;-64
2023/05/10 05:19:10;;;;;;;3.05;2.72;;;;;15.20;98048.00;;;;5037022;28;20072;-64
2023/05/10 05:21:37;;;;;;;3.70;2.40;;;;;15.10;98044.00;;;;5038393;28;20045;-66
2023/05/10 05:24:04;;;;;;;3.00;2.08;;;;;15.10;98039.00;;;;5036563;28;20045;-64
2023/05/10 05:26:31;;;;;;;2.78;2.35;;;;;15.10;98044.00;;;;5035901;28;20054;-64
2023/05/10 05:28:57;;;;;;;2.83;2.40;;;;;15.10;98049.00;;;;5037384;28;20057;-64
2023/05/10 05:31:24;;;;;;;2.05;1.88;;;;;15.10;98053.00;;;;5036654;28;20513;-63
2023/05/10 05:33:51;;;;;;;2.97;2.20;;;;;15.10;98052.00;;;;5038116;28;20037;-65
2023/05/10 05:36:17;;;;;;;2.20;1.98;;;;;15.20;98044.00;;;;5037418;28;20045;-65
2023/05/10 05:38:44;;;;;;;3.03;2.05;;;;;15.20;98045.00;;;;5038154;28;20046;-64
2023/05/10 05:41:10;;;;;;;5.15;2.65;;;;;15.30;98051.00;;;;5036724;28;20075;-65
2023/05/10 05:43:37;;;;;;;2.58;1.95;;;;;15.40;98053.00;;;;5037321;28;20054;-65
2023/05/10 05:46:04;;;;;;;2.50;1.95;;;;;15.40;98055.00;;;;5053748;28;20525;-65
2023/05/10 05:48:31;;;;;;;1.67;1.58;;;;;15.40;98054.00;;;;5035045;28;20462;-65
2023/05/10 05:50:57;;;;;;;2.42;2.13;;;;;15.40;98053.00;;;;5036034;28;20053;-65
2023/05/10 05:53:24;;;;;;;3.30;1.88;;;;;15.50;98054.00;;;;5037323;28;20582;-65
2023/05/10 05:55:53;;;;;;;2.85;2.03;;;;;15.60;98047.00;;;;5052468;28;20049;-65
2023/05/10 05:58:20;;;;;;;4.03;2.00;;;;;15.70;98048.00;;;;5051489;28;20045;-65
2023/05/10 06:00:46;;;;;;;3.00;2.10;;;;;15.80;98046.00;;;;5035282;28;20038;-66
2023/05/10 06:03:13;;;;;;;2.35;2.15;;;;;15.80;98049.00;;;;5037762;28;20529;-66
2023/05/10 06:05:39;;;;;;;2.58;2.25;;;;;15.70;98050.00;;;;5037534;28;20049;-65
2023/05/10 06:08:06;;;;;;;2.72;1.70;;;;;15.70;98053.00;;;;5036148;28;20084;-66
2023/05/10 06:10:33;;;;;;;2.25;1.70;;;;;15.80;98051.00;;;;5053441;28;20111;-65
2023/05/10 06:12:59;;;;;;;2.95;1.90;;;;;15.80;98047.00;;;;5037312;28;20049;-66
2023/05/10 06:15:26;;;;;;;2.85;1.92;;;;;15.90;98046.00;;;;5054109;28;20056;-68
2023/05/10 06:17:53;;;;;;;2.53;2.00;;;;;16.10;98052.00;;;;5038579;28;20042;-65
2023/05/10 06:20:20;;;;;;;3.88;2.03;;;;;16.20;98053.00;;;;5037344;28;20049;-66
2023/05/10 06:22:46;;;;;;;1.70;1.60;;;;;16.20;98060.00;;;;5037482;28;20045;-67
2023/05/10 06:25:14;;;;;;;1.75;1.65;;;;;16.20;98069.00;;;;5038832;28;20046;-65
2023/05/10 06:27:41;;;;;;;2.00;1.90;;;;;16.20;98075.00;;;;5035302;28;20085;-65
2023/05/10 06:30:08;;;;;;;1.98;1.80;;;;;16.20;98068.00;;;;5036298;28;20103;-66
2023/05/10 06:32:39;;;;;;;2.10;1.63;;;;;16.30;98071.00;;;;5034496;28;20084;-66
2023/05/10 06:35:06;;;;;;;1.92;1.70;;;;;16.40;98069.00;;;;5035965;28;20052;-66
2023/05/10 06:37:33;;;;;;;3.00;1.60;;;;;16.50;98075.00;;;;5037779;28;20510;-66
2023/05/10 06:40:00;;;;;;;2.17;1.60;;;;;16.70;98079.00;;;;5037708;28;20045;-64
2023/05/10 06:42:27;;;;;;;2.05;1.50;;;;;16.70;98086.00;;;;5038634;28;20049;-65
2023/05/10 06:44:53;;;;;;;1.55;1.45;;;;;16.60;98080.00;;;;5037144;28;20056;-64
2023/05/10 06:47:20;;;;;;;2.53;1.70;;;;;16.60;98085.00;;;;5038210;28;20168;-64
2023/05/10 06:49:46;;;;;;;2.40;1.67;;;;;16.70;98079.00;;;;5041785;28;20049;-66
2023/05/10 06:52:13;;;;;;;5.45;1.60;;;;;16.70;98093.00;;;;5041842;28;20530;-68
2023/05/10 06:54:39;;;;;;;1.65;1.55;;;;;16.70;98083.00;;;;5040361;28;20053;-66
2023/05/10 06:57:06;;;;;;;1.63;1.30;;;;;16.70;98091.00;;;;5042172;28;20625;-65
2023/05/10 06:59:49;;;;;;;1.80;1.55;;;;;16.60;98087.00;;;;5039077;28;20045;-67
2023/05/10 07:02:16;;;;;;;3.78;1.67;;;;;16.50;98096.00;;;;5039599;28;20045;-66
2023/05/10 07:04:42;;;;;;;3.10;1.63;;;;;16.40;98094.00;;;;5040842;28;20049;-65
2023/05/10 07:07:09;;;;;;;4.50;1.40;;;;;16.30;98101.00;;;;5042684;28;20124;-66
2023/05/10 07:09:36;;;;;;;2.53;1.20;;;;;16.20;98107.00;;;;5041281;28;20057;-66
2023/05/10 07:12:02;;;;;;;1.77;1.30;;;;;16.10;98102.00;;;;5041019;28;20557;-66
2023/05/10 07:14:29;;;;;;;3.00;1.67;;;;;16.00;98102.00;;;;5041191;28;20080;-67
2023/05/10 07:16:55;;;;;;;2.63;1.60;;;;;15.90;98108.00;;;;5042027;28;20049;-68
2023/05/10 07:19:22;;;;;;;3.75;1.40;;;;;15.90;98107.00;;;;5044534;28;20050;-69
2023/05/10 07:21:49;;;;;;;2.65;1.80;;;;;15.90;98107.00;;;;5038876;28;20231;-68
2023/05/10 07:24:15;;;;;;;2.22;1.95;;;;;16.00;98112.00;;;;5039056;28;20091;-68
2023/05/10 07:26:41;;;;;;;3.85;1.63;;;;;16.00;98119.00;;;;5038567;28;20072;-66
2023/05/10 07:29:08;;;;;;;4.15;1.73;;;;;16.10;98115.00;;;;5032598;28;20526;-66
2023/05/10 07:31:35;;;;;;;2.78;1.40;;;;;16.20;98120.00;;;;5048571;28;20061;-64
2023/05/10 07:34:02;;;;;;;3.88;2.03;;;;;16.20;98124.00;;;;5032840;28;20045;-65
2023/05/10 07:36:28;;;;;;;2.20;1.58;;;;;16.20;98116.00;;;;5032605;28;20050;-65
2023/05/10 07:38:56;;;;;;;2.13;1.77;;;;;16.30;98111.00;;;;5047830;28;20179;-64
2023/05/10 07:41:22;;;;;;;2.33;1.73;;;;;16.30;98105.00;;;;5031284;28;20061;-65
2023/05/10 07:43:49;;;;;;;3.53;1.58;;;;;16.40;98110.00;;;;5033211;28;20053;-64
2023/05/10 07:46:16;;;;;;;3.13;1.77;;;;;16.60;98106.00;;;;5033682;28;20053;-63
2023/05/10 07:48:42;;;;;;;2.25;1.30;;;;;16.70;98105.00;;;;5032746;28;20069;-63
2023/05/10 07:51:09;;;;;;;2.33;1.40;;;;;16.80;98106.00;;;;5032677;28;20049;-63
2023/05/10 07:53:36;;;;;;;2.03;1.52;;;;;16.90;98104.00;;;;5033297;28;20042;-64
2023/05/10 07:56:21;;;;;;;9.23;2.13;;;;;16.90;98113.00;;;;5036274;28;20033;-63
2023/05/10 07:58:47;;;;;;;2.58;1.70;;;;;17.00;98114.00;;;;5039340;28;20053;-64
2023/05/10 08:01:14;;;;;;;2.78;1.00;;;;;17.00;98119.00;;;;5040130;28;20537;-64
2023/05/10 08:03:40;;;;;;;3.22;1.10;;;;;16.90;98118.00;;;;5033799;28;20037;-64
2023/05/10 08:06:07;;;;;;;4.55;1.42;;;;;16.80;98116.00;;;;5033403;28;20048;-64
2023/05/10 08:08:34;;;;;;;3.95;1.25;;;;;16.70;98126.00;;;;5037632;28;20045;-64
2023/05/10 08:11:00;;;;;;;1.80;1.20;;;;;16.60;98129.00;;;;5037020;28;20116;-64
2023/05/10 08:13:27;;;;;;;2.50;1.13;;;;;16.70;98127.00;;;;5039100;28;20042;-64
2023/05/10 08:15:53;;;;;;;1.30;0.80;;;;;16.70;98114.00;;;;5035929;28;20096;-64
2023/05/10 08:18:20;;;;;;;1.63;1.08;;;;;16.90;98119.00;;;;5035946;28;20045;-64
2023/05/10 08:20:48;;;;;;;2.65;1.20;;;;;17.00;98125.00;;;;5035490;28;20453;-64
2023/05/10 08:23:15;;;;;;;1.52;1.02;;;;;17.00;98124.00;;;;5035867;28;20518;-64
2023/05/10 08:25:41;;;;;;;2.15;1.13;;;;;17.00;98122.00;;;;5035547;28;20053;-64
2023/05/10 08:28:08;;;;;;;1.45;0.90;;;;;17.10;98123.00;;;;5035370;28;20041;-64
2023/05/10 08:30:37;;;;;;;2.75;1.10;;;;;17.40;98120.00;;;;5038190;28;20042;-65
2023/05/10 08:33:03;;;;;;;2.30;1.00;;;;;17.80;98120.00;;;;5045527;28;20069;-64
2023/05/10 08:35:31;;;;;;;4.03;1.17;;;;;18.10;98125.00;;;;5045363;28;20041;-65
2023/05/10 08:37:57;;;;;;;2.05;1.00;;;;;18.10;98141.00;;;;5046259;28;20045;-64
2023/05/10 08:40:26;;;;;;;2.20;0.82;;;;;18.00;98151.00;;;;5052157;28;20203;-64
2023/05/10 08:43:06;;;;;;;0.80;0.80;;;;;17.80;98156.00;;;;5036364;28;20046;-65
2023/05/10 08:45:36;;;;;;;3.13;0.95;;;;;17.70;98159.00;;;;5034999;28;20046;-64
2023/05/10 08:48:05;;;;;;;1.25;0.90;;;;;17.50;98162.00;;;;5033631;28;20045;-64
2023/05/10 08:50:35;;;;;;;1.10;0.88;;;;;17.30;98156.00;;;;5035029;28;20087;-64
2023/05/10 08:53:06;;;;;;;2.10;0.75;;;;;17.20;98171.00;;;;5034921;28;20046;-64
2023/05/10 08:55:33;;;;;;;1.17;1.08;;;;;17.10;98174.00;;;;5035211;28;20038;-64
2023/05/10 08:58:00;;;;;;;1.52;1.20;;;;;17.00;98170.00;;;;5034476;28;20045;-64
2023/05/10 09:00:28;;;;;;;2.17;1.30;;;;;16.80;98175.00;;;;5050315;28;20041;-64
2023/05/10 09:02:54;;;;;;;2.45;1.08;;;;;16.80;98179.00;;;;5055243;28;20049;-63
2023/05/10 09:05:21;;;;;;;1.20;1.10;;;;;16.60;98178.00;;;;5056604;28;20045;-64
2023/05/10 09:07:48;;;;;;;1.95;1.42;;;;;16.60;98184.00;;;;5040621;28;20044;-64
2023/05/10 09:10:15;;;;;;;3.28;1.20;;;;;16.60;98200.00;;;;5059623;28;20053;-64
2023/05/10 09:12:45;;;;;;;1.33;0.90;;;;;16.60;98190.00;;;;5061069;28;20541;-64
2023/05/10 09:15:14;;;;;;;1.88;0.95;;;;;16.70;98192.00;;;;5060252;28;20102;-64
2023/05/10 09:17:43;;;;;;;1.05;0.93;;;;;16.80;98190.00;;;;5059772;28;20049;-64
2023/05/10 09:20:10;;;;;;;1.35;1.10;;;;;16.90;98185.00;;;;5056067;28;20045;-64
2023/05/10 09:22:37;;;;;;;1.90;0.90;;;;;17.20;98190.00;;;;5054464;28;20044;-64
2023/05/10 09:25:09;;;;;;;1.77;1.00;;;;;17.40;98187.00;;;;5053181;28;20448;-64
2023/05/10 09:27:36;;;;;;;1.30;0.90;;;;;17.70;98184.00;;;;5052884;28;20048;-64
2023/05/10 09:30:04;;;;;;;2.47;1.10;;;;;18.00;98191.00;;;;5054047;28;20045;-64
2023/05/10 09:32:39;;;;;;;1.80;0.80;;;;;18.30;98191.00;;;;5054248;28;20048;-64
2023/05/10 09:35:14;;;;;;;2.25;0.93;;;;;18.40;98192.00;;;;5053277;28;20388;-64
2023/05/10 09:37:44;;;;;;;2.85;0.90;;;;;18.40;98185.00;;;;5054327;28;20125;-64
2023/05/10 09:40:16;;;;;;;0.85;0.80;;;;;18.30;98186.00;;;;5054160;28;20048;-64
2023/05/10 09:42:51;;;;;;;0.90;0.90;;;;;18.30;98196.00;;;;5054298;28;20052;-65
2023/05/10 09:45:18;;;;;;;3.75;0.90;;;;;18.30;98205.00;;;;5054820;28;20040;-64
2023/05/10 09:47:45;;;;;;;3.63;1.00;;;;;18.30;98206.00;;;;5054269;28;20045;-63
2023/05/10 09:50:12;;;;;;;1.95;0.90;;;;;18.20;98202.00;;;;5054568;28;20040;-63
2023/05/10 09:52:59;;;;;;;2.33;1.13;;;;;18.10;98205.00;;;;5053977;28;20120;-62
2023/05/10 09:55:37;;;;;;;2.95;1.08;;;;;18.10;98196.00;;;;5054148;28;20048;-64
2023/05/10 09:58:09;;;;;;;1.45;0.90;;;;;18.20;98200.00;;;;5053128;28;20099;-65
2023/05/10 10:00:37;;;;;;;1.52;1.25;;;;;18.40;98195.00;;;;5055758;28;20409;-65
2023/05/10 10:03:05;;;;;;;3.13;1.08;;;;;18.60;98194.00;;;;5063246;28;20536;-65
2023/05/10 10:05:33;;;;;;;3.05;1.00;;;;;18.70;98201.00;;;;5063553;28;20435;-65
2023/05/10 10:08:03;;;;;;;4.85;1.15;;;;;19.00;98200.00;;;;5062936;28;20040;-65
2023/05/10 10:10:31;;;;;;;1.33;0.80;;;;;19.20;98201.00;;;;5060834;28;20049;-64
2023/05/10 10:12:58;;;;;;;2.25;1.00;;;;;19.40;98195.00;;;;5066460;28;20052;-65
2023/05/10 10:15:25;;;;;;;3.80;1.08;;;;;19.60;98196.00;;;;5066644;28;20045;-65
2023/05/10 10:17:52;;;;;;;4.05;1.20;;;;;19.90;98198.00;;;;5067126;28;20044;-65
2023/05/10 10:20:21;;;;;;;3.42;1.25;;;;;19.80;98196.00;;;;5066776;28;20053;-65
2023/05/10 10:22:48;;;;;;;2.60;1.40;;;;;19.70;98197.00;;;;5066523;28;20104;-65
2023/05/10 10:25:16;;;;;;;1.30;0.90;;;;;19.60;98196.00;;;;5064949;28;20045;-65
2023/05/10 10:27:52;;;;;;;4.22;1.08;;;;;19.50;98189.00;;;;5064765;28;20045;-64
2023/05/10 10:30:36;;;;;;;2.63;1.00;;;;;19.80;98189.00;;;;5064726;28;20506;-65
2023/05/10 10:33:03;;;;;;;1.73;1.00;;;;;20.10;98184.00;;;;5064319;28;20108;-65
2023/05/10 10:35:43;;;;;;;2.15;0.88;;;;;20.10;98193.00;;;;5064776;28;20049;-65
2023/05/10 10:38:12;;;;;;;0.85;0.85;;;;;20.20;98191.00;;;;5059536;28;20059;-64
2023/05/10 10:40:39;;;;;;;1.48;0.98;;;;;20.20;98187.00;;;;5055194;28;20457;-65
2023/05/10 10:43:26;;;;;;;2.55;0.90;;;;;20.20;98195.00;;;;5056021;28;20049;-64
2023/05/10 10:46:13;;;;;;;2.17;0.98;;;;;19.90;98207.00;;;;5054378;28;20044;-64
2023/05/10 10:48:41;;;;;;;4.22;0.82;;;;;19.40;98198.00;;;;5055630;28;20116;-65
2023/05/10 10:51:08;;;;;;;2.83;1.00;;;;;19.00;98206.00;;;;5064610;28;20045;-64
2023/05/10 10:53:38;;;;;;;3.30;1.35;;;;;18.80;98213.00;;;;5064140;28;20037;-64
2023/05/10 10:56:07;;;;;;;4.57;1.42;;;;;18.50;98215.00;;;;5068971;28;20044;-65
2023/05/10 10:58:34;;;;;;;3.95;1.10;;;;;18.30;98219.00;;;;5062142;28;20057;-65
2023/05/10 11:01:15;;;;;;;4.40;1.10;;;;;18.10;98230.00;;;;5061491;28;20033;-64
2023/05/10 11:04:02;;;;;;;3.80;1.23;;;;;18.00;98226.00;;;;5060991;28;20135;-64
2023/05/10 11:06:33;;;;;;;4.00;1.02;;;;;18.00;98228.00;;;;5057042;28;20053;-64
2023/05/10 11:09:11;;;;;;;8.02;1.83;;;;;17.90;98229.00;;;;5062069;28;20044;-64
2023/05/10 11:11:58;;;;;;;5.45;1.20;;;;;17.90;98237.00;;;;5061537;28;20541;-65
2023/05/10 11:14:25;;;;;;;4.97;1.27;;;;;17.80;98229.00;;;;5063701;28;20053;-65
2023/05/10 11:16:51;;;;;;;2.83;1.10;;;;;17.80;98224.00;;;;5063195;28;20041;-64
2023/05/10 11:19:19;;;;;;;2.15;0.93;;;;;17.90;98229.00;;;;5062683;28;20060;-64
2023/05/10 11:22:12;;;;;;;2.47;1.30;;;;;18.00;98234.00;;;;5064162;28;20079;-64
2023/05/10 11:24:39;;;;;;;2.05;0.93;;;;;18.10;98228.00;;;;5064813;28;20067;-64
2023/05/10 11:27:06;;;;;;;2.72;1.20;;;;;18.30;98232.00;;;;5065532;28;20041;-66
2023/05/10 11:29:32;;;;;;;1.25;0.93;;;;;18.40;98222.00;;;;5059875;28;20154;-64
2023/05/10 11:31:59;;;;;;;5.63;1.42;;;;;18.70;98223.00;;;;5052359;28;20041;-64
2023/05/10 11:34:33;;;;;;;1.83;1.08;;;;;18.90;98220.00;;;;5052095;28;20120;-64
2023/05/10 11:37:00;;;;;;;1.20;0.80;;;;;19.20;98225.00;;;;5052379;28;20037;-65
2023/05/10 11:39:28;;;;;;;3.45;1.58;;;;;19.30;98230.00;;;;5051839;28;20556;-64
2023/05/10 11:41:55;;;;;;;9.02;1.27;;;;;19.40;98236.00;;;;5052007;28;20044;-65
2023/05/10 11:44:22;;;;;;;1.90;0.75;;;;;19.40;98235.00;;;;5056172;28;20049;-65
2023/05/10 11:46:49;;;;;;;4.63;0.80;;;;;19.40;98235.00;;;;5056204;28;20489;-64
2023/05/10 11:49:15;;;;;;;2.42;0.60;;;;;19.60;98240.00;;;;5055952;28;20103;-65
2023/05/10 11:51:43;;;;;;;1.83;1.10;;;;;19.70;98224.00;;;;5056068;28;20487;-65
2023/05/10 11:54:11;;;;;;;0.82;0.70;;;;;19.90;98242.00;;;;5055828;28;20041;-65
2023/05/10 11:56:39;;;;;;;2.17;0.60;;;;;20.10;98238.00;;;;5056011;28;20128;-65
2023/05/10 11:59:06;;;;;;;1.50;0.70;;;;;20.20;98233.00;;;;5037955;28;20502;-65
2023/05/10 12:01:33;;;;;;;0.93;0.60;;;;;20.30;98230.00;;;;5055851;28;20682;-65
2023/05/10 12:04:00;;;;;;;4.43;0.80;;;;;20.50;98240.00;;;;5054624;28;20103;-65
2023/05/10 12:06:30;;;;;;;1.52;0.70;;;;;20.50;98234.00;;;;5055525;28;20037;-64
2023/05/10 12:08:58;;;;;;;1.35;0.50;;;;;20.60;98244.00;;;;5054374;28;20041;-65
2023/05/10 12:11:26;;;;;;;1.42;0.70;;;;;20.70;98238.00;;;;5055581;28;20067;-65
2023/05/10 12:13:54;;;;;;;0.98;0.55;;;;;21.00;98240.00;;;;5055947;28;20438;-66
2023/05/10 12:16:22;;;;;;;2.05;0.82;;;;;21.20;98240.00;;;;5055560;28;20506;-65
2023/05/10 12:18:53;;;;;;;1.10;0.60;;;;;21.30;98243.00;;;;5053971;28;20053;-64
2023/05/10 12:21:20;;;;;;;1.58;0.77;;;;;21.20;98245.00;;;;5055238;28;20045;-65
2023/05/10 12:23:50;;;;;;;0.93;0.52;;;;;21.20;98243.00;;;;5054062;28;20045;-65
2023/05/10 12:26:17;;;;;;;2.63;0.70;;;;;21.30;98249.00;;;;5055363;28;20041;-65